Time;durP1;ratioP1;P1;durP2;ratioP2;P2;SDS_P1;SDS_P2;PMS_P1;PMS_P2;Temp;Humidity;BMP_temperature;BMP_pressure;BME280_temperature;BME280_humidity;BME280_pressure;Samples;Min_cycle;Max_cycle;Signal;HPM_P1;HPM_P2
2022/01/24 00:02:09;;;;;;;;;;;;;;;21.58;38.19;103085.44;7280258;19;154105;-51
2022/01/24 00:04:38;;;;;;;;;;;;;;;21.56;38.31;103088.53;7293440;19;152080;-51
2022/01/24 00:07:05;;;;;;;;;;;;;;;21.54;38.88;103084.28;7285544;19;154226;-50
2022/01/24 00:09:33;;;;;;;;;;;;;;;21.51;38.91;103082.84;7286847;19;152156;-51
2022/01/24 00:12:24;;;;;;;;;;;;;;;21.49;38.96;103087.88;7285959;19;152742;-51
2022/01/24 00:15:10;;;;;;;;;;;;;;;21.46;39.35;103079.97;7285697;19;154192;-51
2022/01/24 00:17:42;;;;;;;;;;;;;;;21.43;39.10;103086.13;7289172;19;152688;-51
2022/01/24 00:28:08;;;;;;;;;;;;;;;21.32;39.48;103070.22;7293201;19;152785;-51
2022/01/24 00:30:36;;;;;;;;;;;;;;;21.27;39.48;103059.78;7285880;19;152577;-51
2022/01/24 00:33:04;;;;;;;;;;;;;;;21.26;39.46;103060.03;7287668;19;153323;-51
2022/01/24 00:35:31;;;;;;;;;;;;;;;21.21;39.98;103060.81;7281970;19;155025;-51
2022/01/24 00:37:59;;;;;;;;;;;;;;;21.21;39.69;103060.00;7284627;19;152496;-50
2022/01/24 00:40:27;;;;;;;;;;;;;;;21.18;40.03;103066.13;7287474;19;152921;-51
2022/01/24 00:42:57;;;;;;;;;;;;;;;21.16;40.19;103062.72;7284991;19;153124;-51
2022/01/24 00:53:18;;;;;;;;;;;;;;;21.00;40.41;103066.41;7284745;19;151793;-51
2022/01/24 00:55:46;;;;;;;;;;;;;;;20.97;40.51;103064.97;7286499;19;153287;-51
2022/01/24 00:58:14;;;;;;;;;;;;;;;20.93;40.15;103063.78;7284606;19;152093;-51
2022/01/24 01:00:42;;;;;;;;;;;;;;;20.91;40.52;103060.38;7284769;19;153080;-51
2022/01/24 01:03:09;;;;;;;;;;;;;;;20.87;40.45;103062.00;7283399;19;154131;-51
2022/01/24 01:18:36;;;;;;;;;;;;;;;20.75;40.57;103067.75;7284365;19;152038;-51
2022/01/24 01:21:10;;;;;;;;;;;;;;;20.71;40.40;103063.78;7282192;19;152957;-51
2022/01/24 01:23:44;;;;;;;;;;;;;;;20.70;40.22;103061.22;7280250;19;153328;-52
2022/01/24 01:29:14;;;;;;;;;;;;;;;20.63;40.18;103066.13;7284894;19;151956;-51
2022/01/24 01:52:40;;;;;;;;;;;;;;;20.38;40.99;103055.38;7279973;19;153745;-51
2022/01/24 01:55:14;;;;;;;;;;;;;;;20.36;41.16;103055.63;7283733;19;152146;-51
2022/01/24 01:57:45;;;;;;;;;;;;;;;20.34;40.86;103054.19;7289032;19;153173;-51
2022/01/24 02:00:13;;;;;;;;;;;;;;;20.31;41.39;103052.72;7281448;19;152386;-50
2022/01/24 02:02:41;;;;;;;;;;;;;;;20.30;40.97;103045.44;7283880;19;152180;-51
2022/01/24 02:05:08;;;;;;;;;;;;;;;20.28;41.08;103046.75;7280592;19;153428;-51
2022/01/24 02:07:44;;;;;;;;;;;;;;;20.24;41.39;103045.56;7275311;19;155298;-51
2022/01/24 02:10:12;;;;;;;;;;;;;;;20.21;41.36;103044.13;7284468;19;152491;-51
2022/01/24 02:12:40;;;;;;;;;;;;;;;20.21;41.60;103058.16;7283186;19;153000;-51
2022/01/24 02:15:07;;;;;;;;;;;;;;;20.18;41.65;103050.22;7284443;19;152624;-51
2022/01/24 02:23:16;;;;;;;;;;;;;;;20.13;41.62;103052.09;7282838;19;153433;-51
2022/01/24 02:25:39;;;;;;;;;;;;;;;20.10;41.65;103047.84;7279425;19;153384;-51
2022/01/24 02:28:10;;;;;;;;;;;;;;;20.09;41.94;103050.91;7283172;19;151808;-51
2022/01/24 02:33:09;;;;;;;;;;;;;;;20.04;42.01;103051.66;7279560;19;153719;-51
2022/01/24 02:35:36;;;;;;;;;;;;;;;20.02;41.87;103051.09;7281568;19;152184;-50
2022/01/24 02:38:10;;;;;;;;;;;;;;;20.01;42.20;103062.56;7269447;19;154737;-51
2022/01/24 02:40:38;;;;;;;;;;;;;;;19.98;41.76;103055.50;7281945;19;155298;-51
2022/01/24 02:53:29;;;;;;;;;;;;;;;19.87;42.20;103074.09;7275369;19;156031;-51
2022/01/24 02:55:56;;;;;;;;;;;;;;;19.87;42.27;103062.03;7283571;19;152049;-51
2022/01/24 02:58:23;;;;;;;;;;;;;;;19.84;41.96;103059.72;7284383;19;153714;-51
2022/01/24 03:00:50;;;;;;;;;;;;;;;19.83;42.25;103070.09;7280328;19;153951;-51
2022/01/24 03:03:18;;;;;;;;;;;;;;;19.81;42.30;103068.63;7281210;19;151898;-50
2022/01/24 03:05:44;;;;;;;;;;;;;;;19.78;42.01;103067.19;7290173;19;152885;-51
2022/01/24 03:08:13;;;;;;;;;;;;;;;19.77;41.98;103071.09;7282528;19;152110;-50
2022/01/24 03:10:44;;;;;;;;;;;;;;;19.74;42.29;103067.94;7270356;19;153267;-50
2022/01/24 03:13:32;;;;;;;;;;;;;;;19.73;42.14;103058.69;7276576;19;153510;-51
2022/01/24 03:16:00;;;;;;;;;;;;;;;19.70;42.33;103056.38;7281124;19;151924;-50
2022/01/24 03:18:28;;;;;;;;;;;;;;;19.69;42.16;103051.03;7280311;19;153674;-51
2022/01/24 03:20:55;;;;;;;;;;;;;;;19.66;42.28;103052.38;7277447;19;153446;-50
2022/01/24 03:23:22;;;;;;;;;;;;;;;19.64;42.32;103042.50;7282029;19;151956;-51
2022/01/24 03:25:50;;;;;;;;;;;;;;;19.61;42.25;103041.06;7285033;19;152761;-51
2022/01/24 03:28:17;;;;;;;;;;;;;;;19.59;42.46;103036.81;7278004;19;152435;-50
2022/01/24 03:30:45;;;;;;;;;;;;;;;19.60;42.48;103032.91;7279631;19;152509;-50
2022/01/24 03:33:11;;;;;;;;;;;;;;;19.57;42.55;103025.84;7279478;19;153893;-51
2022/01/24 03:35:40;;;;;;;;;;;;;;;19.55;42.50;103030.84;7280556;19;152274;-51
2022/01/24 03:38:07;;;;;;;;;;;;;;;19.54;42.74;103030.00;7280282;19;152789;-51
2022/01/24 03:40:34;;;;;;;;;;;;;;;19.53;42.68;103030.28;7276367;19;154002;-50
2022/01/24 03:43:01;;;;;;;;;;;;;;;19.51;42.50;103027.69;7284671;19;152032;-51
2022/01/24 03:48:10;;;;;;;;;;;;;;;19.47;42.63;103023.69;7290135;19;152794;-51
2022/01/24 03:50:38;;;;;;;;;;;;;;;19.47;42.59;103022.84;7281239;19;153672;-51
2022/01/24 03:53:06;;;;;;;;;;;;;;;19.46;42.43;103024.78;7284303;19;153289;-50
2022/01/24 03:55:33;;;;;;;;;;;;;;;19.44;42.48;103018.56;7286148;19;151605;-51
2022/01/24 03:58:00;;;;;;;;;;;;;;;19.42;42.81;103015.16;7286425;19;153174;-51
2022/01/24 04:00:27;;;;;;;;;;;;;;;19.40;42.74;103019.28;7288030;19;154008;-51
2022/01/24 04:02:54;;;;;;;;;;;;;;;19.37;42.53;103012.25;7286639;19;151997;-51
2022/01/24 04:05:21;;;;;;;;;;;;;;;19.38;42.66;103013.97;7282530;19;152567;-51
2022/01/24 04:07:48;;;;;;;;;;;;;;;19.34;42.75;103015.56;7285984;19;153834;-51
2022/01/24 04:10:18;;;;;;;;;;;;;;;19.35;42.53;103008.00;7295014;19;151627;-50
2022/01/24 04:12:46;;;;;;;;;;;;;;;19.33;42.40;103008.25;7275286;19;154912;-51
2022/01/24 04:18:08;;;;;;;;;;;;;;;19.32;42.27;103011.28;7284512;19;153162;-51
2022/01/24 04:23:18;;;;;;;;;;;;;;;19.29;42.28;103001.44;7284151;19;152134;-51
2022/01/24 04:25:46;;;;;;;;;;;;;;;19.28;42.28;103002.53;7281361;19;153441;-51
2022/01/24 04:28:13;;;;;;;;;;;;;;;19.26;42.64;102993.50;7283968;19;153891;-51
2022/01/24 04:30:39;;;;;;;;;;;;;;;19.26;42.69;103001.91;7285726;19;151770;-50
2022/01/24 04:33:06;;;;;;;;;;;;;;;19.25;42.52;103010.59;7291433;19;154904;-51
2022/01/24 04:35:33;;;;;;;;;;;;;;;19.23;42.40;103008.03;7288254;19;151904;-50
2022/01/24 04:38:01;;;;;;;;;;;;;;;19.21;42.77;103003.78;7284424;19;153549;-50
2022/01/24 04:40:29;;;;;;;;;;;;;;;19.20;42.53;103005.75;7281816;19;153539;-50
2022/01/24 04:43:16;;;;;;;;;;;;;;;19.18;42.41;102996.72;7274616;19;151792;-50
2022/01/24 04:51:06;;;;;;;;;;;;;;;19.15;42.69;102996.38;7278123;19;152213;-50
2022/01/24 04:56:09;;;;;;;;;;;;;;;19.12;42.78;103002.50;7290810;19;153811;-50
2022/01/24 04:58:36;;;;;;;;;;;;;;;19.12;42.75;103008.09;7285218;19;153582;-51
2022/01/24 05:01:03;;;;;;;;;;;;;;;19.13;42.94;103004.16;7285617;19;153136;-50
2022/01/24 05:03:29;;;;;;;;;;;;;;;19.16;43.27;103010.16;7284940;19;152402;-50
2022/01/24 05:05:56;;;;;;;;;;;;;;;19.18;43.24;103012.69;7279834;19;153536;-50
2022/01/24 05:08:23;;;;;;;;;;;;;;;19.21;43.23;103012.22;7282983;19;153336;-51
2022/01/24 05:10:59;;;;;;;;;;;;;;;19.23;43.65;103010.84;7281331;19;153172;-50
2022/01/24 05:23:54;;;;;;;;;;;;;;;19.45;44.40;103014.69;7282761;19;152191;-50
2022/01/24 05:26:21;;;;;;;;;;;;;;;19.50;44.30;103014.78;7282184;19;152668;-51
2022/01/24 05:28:48;;;;;;;;;;;;;;;19.58;44.32;103018.28;7281009;19;154416;-50
2022/01/24 05:31:16;;;;;;;;;;;;;;;19.64;44.46;103020.06;7283401;19;151934;-50
2022/01/24 05:33:43;;;;;;;;;;;;;;;19.71;44.12;103017.97;7282595;19;153263;-50
2022/01/24 05:36:10;;;;;;;;;;;;;;;19.76;44.29;103032.91;7279983;19;155163;-51
2022/01/24 05:38:37;;;;;;;;;;;;;;;19.81;44.17;103030.22;7292624;19;151911;-51
2022/01/24 05:41:04;;;;;;;;;;;;;;;19.88;43.86;103036.53;7284093;19;154073;-51
2022/01/24 05:43:31;;;;;;;;;;;;;;;19.93;43.39;103032.97;7283928;19;152087;-51
2022/01/24 05:45:58;;;;;;;;;;;;;;;19.99;43.29;103035.59;7271704;19;154032;-50
2022/01/24 05:48:25;;;;;;;;;;;;;;;20.06;43.14;103028.97;7283189;19;154127;-50
2022/01/24 05:50:51;;;;;;;;;;;;;;;20.12;43.23;103039.19;7280415;19;152145;-51
2022/01/24 05:53:18;;;;;;;;;;;;;;;20.18;42.85;103041.81;7280308;19;154447;-51
2022/01/24 05:55:45;;;;;;;;;;;;;;;20.24;42.90;103042.75;7279459;19;154735;-51
2022/01/24 05:58:12;;;;;;;;;;;;;;;20.30;43.22;103039.81;7281202;19;152173;-51
2022/01/24 06:00:39;;;;;;;;;;;;;;;20.36;43.02;103043.53;7289482;19;152936;-51
2022/01/24 06:03:05;;;;;;;;;;;;;;;20.40;43.00;103048.38;7283245;19;152116;-51
2022/01/24 06:05:32;;;;;;;;;;;;;;;20.46;42.79;103042.84;7281696;19;155107;-50
2022/01/24 06:08:00;;;;;;;;;;;;;;;20.51;42.69;103048.53;7281908;19;153441;-51
2022/01/24 06:10:27;;;;;;;;;;;;;;;20.57;42.40;103048.38;7280739;19;152047;-51
2022/01/24 06:12:53;;;;;;;;;;;;;;;20.62;42.27;103048.47;7283113;19;152730;-51
2022/01/24 06:15:20;;;;;;;;;;;;;;;20.67;42.02;103048.50;7279497;19;152693;-51
2022/01/24 06:17:47;;;;;;;;;;;;;;;20.71;42.16;103049.72;7276474;19;152577;-51
2022/01/24 06:20:14;;;;;;;;;;;;;;;20.76;41.86;103044.16;7283434;19;153673;-51
2022/01/24 06:22:41;;;;;;;;;;;;;;;20.81;41.83;103049.00;7289245;19;153978;-51
2022/01/24 06:25:08;;;;;;;;;;;;;;;20.85;41.91;103051.03;7282750;19;153422;-51
2022/01/24 06:27:41;;;;;;;;;;;;;;;20.90;41.35;103043.78;7277536;19;153873;-51
2022/01/24 06:30:08;;;;;;;;;;;;;;;20.95;41.72;103044.69;7279791;19;152507;-50
2022/01/24 06:32:36;;;;;;;;;;;;;;;21.01;41.17;103048.44;7284789;19;153131;-51
2022/01/24 06:35:04;;;;;;;;;;;;;;;21.06;41.62;103045.69;7281300;19;152481;-51
2022/01/24 06:37:31;;;;;;;;;;;;;;;21.09;41.31;103043.19;7282834;19;151913;-51
2022/01/24 06:39:58;;;;;;;;;;;;;;;21.13;41.32;103049.19;7284188;19;153258;-51
2022/01/24 06:42:25;;;;;;;;;;;;;;;21.17;41.40;103051.19;7282114;19;153300;-51
2022/01/24 06:44:53;;;;;;;;;;;;;;;21.22;41.15;103048.47;7291457;19;151725;-50
2022/01/24 06:47:21;;;;;;;;;;;;;;;21.24;41.30;103043.44;7272548;19;153375;-51
2022/01/24 06:49:48;;;;;;;;;;;;;;;21.30;40.76;103049.97;7281454;19;151914;-52
2022/01/24 06:52:15;;;;;;;;;;;;;;;21.34;41.04;103053.13;7278882;19;153061;-51
2022/01/24 06:54:45;;;;;;;;;;;;;;;21.36;40.88;103051.72;7279482;19;152978;-51
2022/01/24 06:57:15;;;;;;;;;;;;;;;21.41;40.63;103051.78;7282451;19;151975;-51
2022/01/24 06:59:44;;;;;;;;;;;;;;;21.45;40.57;103052.09;7284079;19;153139;-51
2022/01/24 07:02:11;;;;;;;;;;;;;;;21.48;40.47;103051.59;7281024;19;152580;-51
2022/01/24 07:04:41;;;;;;;;;;;;;;;21.52;40.43;103055.56;7279113;19;151836;-51
2022/01/24 07:07:11;;;;;;;;;;;;;;;21.55;40.62;103055.03;7282724;19;152236;-51
2022/01/24 07:09:39;;;;;;;;;;;;;;;21.59;40.81;103064.66;7283088;19;152240;-51
2022/01/24 07:12:07;;;;;;;;;;;;;;;21.62;40.75;103067.78;7281075;19;153129;-52
2022/01/24 07:14:39;;;;;;;;;;;;;;;21.66;40.80;103068.97;7279488;19;154501;-51
2022/01/24 07:19:42;;;;;;;;;;;;;;;21.73;41.01;103069.59;7273260;19;151771;-51
2022/01/24 07:22:09;;;;;;;;;;;;;;;21.77;40.46;103069.91;7282652;19;152841;-51
2022/01/24 07:24:37;;;;;;;;;;;;;;;21.84;40.93;103076.19;7281266;19;152829;-51
2022/01/24 07:27:05;;;;;;;;;;;;;;;21.89;40.34;103078.22;7279267;19;152164;-52
2022/01/24 07:29:34;;;;;;;;;;;;;;;21.89;40.03;103079.06;7288535;19;152210;-53
2022/01/24 07:32:02;;;;;;;;;;;;;;;21.91;39.32;103079.63;7282472;19;153289;-52
2022/01/24 07:34:29;;;;;;;;;;;;;;;21.93;39.42;103082.22;7281094;19;154359;-52
2022/01/24 07:36:58;;;;;;;;;;;;;;;21.94;38.93;103090.38;7280920;19;152496;-52
2022/01/24 07:39:31;;;;;;;;;;;;;;;21.97;38.52;103095.50;7283049;19;153602;-52
2022/01/24 07:42:15;;;;;;;;;;;;;;;21.98;38.74;103102.84;7280269;19;154019;-53
2022/01/24 07:44:42;;;;;;;;;;;;;;;22.01;38.13;103095.81;7276799;19;152616;-50
2022/01/24 07:47:09;;;;;;;;;;;;;;;22.01;38.43;103102.28;7274187;19;153114;-52
2022/01/24 07:49:39;;;;;;;;;;;;;;;22.01;37.93;103105.09;7277562;19;152775;-51
2022/01/24 07:52:06;;;;;;;;;;;;;;;22.04;37.58;103098.06;7278290;19;154427;-51
2022/01/24 07:54:33;;;;;;;;;;;;;;;22.02;36.05;103105.97;7277064;19;154178;-52
2022/01/24 07:57:00;;;;;;;;;;;;;;;21.94;35.79;103106.44;7282466;19;151555;-51
2022/01/24 07:59:27;;;;;;;;;;;;;;;21.93;35.43;103110.38;7282275;19;153469;-52
2022/01/24 08:01:56;;;;;;;;;;;;;;;21.92;35.51;103100.19;7278754;19;154753;-52
2022/01/24 08:04:24;;;;;;;;;;;;;;;21.93;35.77;103108.41;7279926;19;151816;-52
2022/01/24 08:06:53;;;;;;;;;;;;;;;21.93;35.55;103099.09;7279907;19;153041;-52
2022/01/24 08:09:20;;;;;;;;;;;;;;;21.94;35.54;103109.25;7280348;19;153261;-52
2022/01/24 08:11:47;;;;;;;;;;;;;;;21.94;35.76;103103.63;7289463;19;152620;-52
2022/01/24 08:14:15;;;;;;;;;;;;;;;21.94;35.85;103112.91;7280932;19;154572;-52
2022/01/24 08:16:43;;;;;;;;;;;;;;;21.94;35.83;103112.06;7279865;19;152199;-52
2022/01/24 08:19:21;;;;;;;;;;;;;;;21.93;35.51;103116.00;7280685;19;152197;-51
2022/01/24 08:21:52;;;;;;;;;;;;;;;21.93;35.71;103110.38;7269798;19;152337;-52
2022/01/24 08:24:21;;;;;;;;;;;;;;;21.91;35.49;103104.97;7284230;19;153321;-52
2022/01/24 08:26:49;;;;;;;;;;;;;;;21.92;35.44;103108.63;7287437;19;152846;-52
2022/01/24 08:29:22;;;;;;;;;;;;;;;21.91;35.79;103113.41;7284678;19;155140;-52
2022/01/24 08:31:50;;;;;;;;;;;;;;;21.92;36.78;103117.94;7288221;19;151658;-52
2022/01/24 08:34:21;;;;;;;;;;;;;;;21.91;36.07;103109.72;7293404;19;153631;-52
2022/01/24 08:36:54;;;;;;;;;;;;;;;21.91;35.60;103116.22;7285660;19;151775;-52
2022/01/24 08:39:21;;;;;;;;;;;;;;;21.89;35.44;103114.81;7286923;19;152731;-52
2022/01/24 08:46:50;;;;;;;;;;;;;;;21.80;35.61;103122.00;7284697;19;152968;-52
2022/01/24 08:49:19;;;;;;;;;;;;;;;21.77;35.70;103119.72;7285555;19;152358;-53
2022/01/24 08:51:46;;;;;;;;;;;;;;;21.79;35.51;103121.16;7277545;19;152215;-53
2022/01/24 08:54:31;;;;;;;;;;;;;;;21.73;35.82;103125.88;7279867;19;153303;-52
2022/01/24 08:56:58;;;;;;;;;;;;;;;21.71;35.62;103127.25;7289631;19;152748;-52
2022/01/24 08:59:25;;;;;;;;;;;;;;;21.67;36.04;103120.44;7283673;19;152666;-51
2022/01/24 09:01:52;;;;;;;;;;;;;;;21.67;36.00;103123.25;7283707;19;153953;-51
2022/01/24 09:04:19;;;;;;;;;;;;;;;21.65;35.92;103120.72;7281824;19;152345;-50
2022/01/24 09:06:46;;;;;;;;;;;;;;;21.66;36.12;103125.25;7280134;19;152137;-51
2022/01/24 09:09:15;;;;;;;;;;;;;;;21.67;36.69;103121.28;7283128;19;153836;-51
2022/01/24 09:11:42;;;;;;;;;;;;;;;21.70;36.72;103123.59;7284258;19;151834;-51
2022/01/24 09:14:09;;;;;;;;;;;;;;;21.74;36.73;103126.72;7284569;19;153555;-51
2022/01/24 09:16:36;;;;;;;;;;;;;;;21.76;37.16;103124.47;7278812;19;153377;-51
2022/01/24 09:19:04;;;;;;;;;;;;;;;21.79;36.79;103121.16;7290812;19;151778;-51
2022/01/24 09:21:34;;;;;;;;;;;;;;;21.84;37.16;103126.84;7280596;19;152317;-50
2022/01/24 09:24:01;;;;;;;;;;;;;;;21.88;37.06;103129.97;7274464;19;152294;-50
2022/01/24 09:26:28;;;;;;;;;;;;;;;21.91;36.82;103132.25;7281385;19;151846;-51
2022/01/24 09:28:55;;;;;;;;;;;;;;;21.96;37.15;103135.16;7282607;19;153971;-51
2022/01/24 09:31:22;;;;;;;;;;;;;;;21.99;37.21;103135.47;7282816;19;151869;-51
2022/01/24 09:33:51;;;;;;;;;;;;;;;22.03;36.77;103141.44;7280621;19;154199;-51
2022/01/24 09:36:17;;;;;;;;;;;;;;;22.04;37.01;103135.53;7278377;19;153351;-51
2022/01/24 09:38:44;;;;;;;;;;;;;;;22.08;36.93;103133.88;7290646;19;152138;-51
2022/01/24 09:41:13;;;;;;;;;;;;;;;22.11;36.68;103130.56;7282687;19;153883;-51
2022/01/24 09:43:40;;;;;;;;;;;;;;;22.14;36.69;103143.22;7283855;19;152072;-52
2022/01/24 09:46:08;;;;;;;;;;;;;;;22.15;37.08;103140.16;7282533;19;152773;-51
2022/01/24 09:48:37;;;;;;;;;;;;;;;22.17;36.84;103139.88;7282801;19;153727;-51
2022/01/24 09:51:04;;;;;;;;;;;;;;;22.18;36.63;103136.81;7281672;19;152113;-51
2022/01/24 09:53:33;;;;;;;;;;;;;;;22.20;36.52;103141.31;7277138;19;152459;-51
2022/01/24 09:56:03;;;;;;;;;;;;;;;22.20;37.04;103139.38;7275556;19;153275;-51
2022/01/24 09:58:31;;;;;;;;;;;;;;;22.21;36.52;103140.22;7280636;19;152073;-51
2022/01/24 10:00:59;;;;;;;;;;;;;;;22.20;36.60;103144.16;7289972;19;152780;-51
2022/01/24 10:03:26;;;;;;;;;;;;;;;22.20;36.91;103133.72;7284097;19;151843;-51
2022/01/24 10:06:08;;;;;;;;;;;;;;;22.19;36.57;103137.66;7282312;19;152840;-52
2022/01/24 10:08:35;;;;;;;;;;;;;;;22.18;37.04;103133.13;7281346;19;154207;-51
2022/01/24 10:11:04;;;;;;;;;;;;;;;22.17;36.90;103137.91;7277763;19;152805;-51
2022/01/24 10:18:50;;;;;;;;;;;;;;;22.14;36.72;103140.41;7283072;19;152347;-51
2022/01/24 10:21:17;;;;;;;;;;;;;;;22.12;37.05;103145.47;7286309;19;152996;-50
2022/01/24 10:23:45;;;;;;;;;;;;;;;22.10;36.79;103139.25;7290975;19;154267;-51
2022/01/24 10:26:13;;;;;;;;;;;;;;;22.09;36.79;103137.56;7274831;19;153780;-51
2022/01/24 10:28:41;;;;;;;;;;;;;;;22.08;37.12;103144.28;7282320;19;154057;-51
2022/01/24 10:31:10;;;;;;;;;;;;;;;22.06;37.22;103140.91;7285256;19;151874;-51
2022/01/24 10:33:51;;;;;;;;;;;;;;;22.04;37.39;103138.34;7283645;19;154131;-51
2022/01/24 10:36:27;;;;;;;;;;;;;;;22.03;37.05;103142.28;7282061;19;154636;-51
2022/01/24 10:39:20;;;;;;;;;;;;;;;22.00;37.30;103142.81;7284243;19;152203;-51
2022/01/24 10:41:56;;;;;;;;;;;;;;;21.97;37.13;103134.91;7282653;19;153300;-52
2022/01/24 10:44:30;;;;;;;;;;;;;;;21.94;37.42;103141.03;7283221;19;153405;-51
2022/01/24 10:47:22;;;;;;;;;;;;;;;21.92;37.02;103142.41;7288097;19;151982;-51
2022/01/24 10:49:50;;;;;;;;;;;;;;;21.89;37.40;103154.19;7281048;19;153100;-51
2022/01/24 10:52:23;;;;;;;;;;;;;;;21.86;37.22;103141.50;7283939;19;152383;-51
2022/01/24 10:54:55;;;;;;;;;;;;;;;21.84;37.23;103156.94;7284135;19;152002;-52
2022/01/24 10:57:24;;;;;;;;;;;;;;;21.81;37.30;103151.84;7270716;19;153558;-50
2022/01/24 10:59:59;;;;;;;;;;;;;;;21.78;37.11;103146.75;7284732;19;152041;-51
2022/01/24 11:02:32;;;;;;;;;;;;;;;21.75;37.50;103150.94;7283748;19;153194;-52
2022/01/24 11:05:10;;;;;;;;;;;;;;;21.70;37.24;103146.09;7280838;19;153368;-51
2022/01/24 11:08:14;;;;;;;;;;;;;;;21.68;37.67;103144.66;7280664;19;151826;-52
2022/01/24 11:10:42;;;;;;;;;;;;;;;21.67;37.72;103142.94;7286472;19;152547;-51
2022/01/24 11:13:11;;;;;;;;;;;;;;;21.63;37.98;103148.25;7281581;19;151972;-51
2022/01/24 11:15:42;;;;;;;;;;;;;;;21.58;36.94;103148.19;7281557;19;152732;-52
2022/01/24 11:18:14;;;;;;;;;;;;;;;21.54;36.45;103144.19;7282148;19;153143;-53
2022/01/24 11:20:45;;;;;;;;;;;;;;;21.49;36.39;103138.50;7284123;19;152068;-52
2022/01/24 11:23:13;;;;;;;;;;;;;;;21.46;35.92;103143.81;7282439;19;153306;-53
2022/01/24 11:25:43;;;;;;;;;;;;;;;21.39;36.16;103135.59;7278694;19;154333;-53
2022/01/24 11:28:11;;;;;;;;;;;;;;;21.33;35.74;103135.75;7268964;19;154705;-52
2022/01/24 11:30:42;;;;;;;;;;;;;;;21.24;35.80;103139.03;7283065;19;153661;-52
2022/01/24 11:33:15;;;;;;;;;;;;;;;21.19;35.81;103144.59;7288740;19;153765;-53
2022/01/24 11:35:50;;;;;;;;;;;;;;;21.15;36.05;103145.38;7283050;19;152993;-53
2022/01/24 11:38:37;;;;;;;;;;;;;;;21.08;35.86;103139.88;7280575;19;154312;-53
2022/01/24 11:41:25;;;;;;;;;;;;;;;21.04;35.80;103146.28;7280144;19;152275;-53
2022/01/24 11:43:56;;;;;;;;;;;;;;;20.97;35.91;103137.19;7282349;19;153235;-53
2022/01/24 11:46:42;;;;;;;;;;;;;;;20.91;35.63;103138.22;7270016;19;153315;-53
2022/01/24 11:49:19;;;;;;;;;;;;;;;20.86;36.05;103137.03;7281385;19;151843;-53
2022/01/24 11:52:02;;;;;;;;;;;;;;;20.82;36.03;103129.38;7280026;19;152563;-53
2022/01/24 11:54:32;;;;;;;;;;;;;;;20.77;36.03;103132.09;7287974;19;153885;-52
2022/01/24 11:57:18;;;;;;;;;;;;;;;20.73;35.80;103131.75;7280768;19;152978;-52
2022/01/24 11:59:45;;;;;;;;;;;;;;;20.69;35.82;103130.59;7280693;19;153319;-53
2022/01/24 12:02:15;;;;;;;;;;;;;;;20.65;36.17;103129.41;7284532;19;152111;-52
2022/01/24 12:04:51;;;;;;;;;;;;;;;20.60;36.01;103125.66;7289229;19;152614;-53
2022/01/24 12:07:21;;;;;;;;;;;;;;;20.57;35.77;103115.78;7280638;19;154575;-53
2022/01/24 12:09:48;;;;;;;;;;;;;;;20.54;36.08;103130.31;7287636;19;153107;-53
2022/01/24 12:12:35;;;;;;;;;;;;;;;20.50;36.02;103123.50;7287345;19;153302;-53
2022/01/24 12:15:03;;;;;;;;;;;;;;;20.47;35.82;103120.38;7286955;19;153153;-52
2022/01/24 12:17:40;;;;;;;;;;;;;;;20.42;36.07;103124.81;7294105;19;152163;-53
2022/01/24 12:20:16;;;;;;;;;;;;;;;20.40;35.69;103123.34;7284351;19;154006;-52
2022/01/24 12:22:49;;;;;;;;;;;;;;;20.35;35.76;103123.28;7285580;19;152177;-53
2022/01/24 12:25:16;;;;;;;;;;;;;;;20.32;36.01;103115.34;7288742;19;152676;-52
2022/01/24 12:27:58;;;;;;;;;;;;;;;20.28;35.80;103117.78;7285930;19;154253;-52
2022/01/24 12:30:46;;;;;;;;;;;;;;;20.25;36.21;103109.88;7288132;19;151628;-52
2022/01/24 12:33:27;;;;;;;;;;;;;;;20.23;36.28;103108.41;7287548;19;152874;-53
2022/01/24 12:35:54;;;;;;;;;;;;;;;20.19;35.94;103101.59;7284498;19;154515;-53
2022/01/24 12:38:21;;;;;;;;;;;;;;;20.16;35.96;103102.97;7285053;19;152219;-52
2022/01/24 12:40:48;;;;;;;;;;;;;;;20.12;36.13;103101.78;7293619;19;152169;-52
2022/01/24 12:43:41;;;;;;;;;;;;;;;20.10;35.98;103103.97;7288259;19;151745;-52
2022/01/24 12:48:46;;;;;;;;;;;;;;;20.03;36.30;103105.25;7285056;19;153731;-52
2022/01/24 12:51:16;;;;;;;;;;;;;;;20.01;36.09;103093.41;7286200;19;151866;-53
2022/01/24 12:53:44;;;;;;;;;;;;;;;19.98;36.13;103095.63;7285778;19;151611;-52
2022/01/24 12:56:15;;;;;;;;;;;;;;;19.94;36.16;103094.41;7285262;19;153500;-53
2022/01/24 12:58:44;;;;;;;;;;;;;;;19.92;36.14;103098.59;7285448;19;151836;-52
2022/01/24 13:01:23;;;;;;;;;;;;;;;19.89;36.33;103096.31;7285474;19;153192;-52
2022/01/24 13:03:51;;;;;;;;;;;;;;;19.89;36.52;103097.16;7294003;19;152706;-53
2022/01/24 13:06:18;;;;;;;;;;;;;;;19.89;36.25;103088.75;7287711;19;152721;-52
2022/01/24 13:08:55;;;;;;;;;;;;;;;19.90;36.39;103084.81;7284899;19;154206;-52
2022/01/24 13:11:28;;;;;;;;;;;;;;;19.93;36.28;103078.72;7278984;19;153068;-52
2022/01/24 13:14:02;;;;;;;;;;;;;;;19.97;36.53;103076.25;7284489;19;152701;-53
2022/01/24 13:22:25;;;;;;;;;;;;;;;20.09;36.17;103078.97;7286594;19;152580;-52
2022/01/24 13:25:14;;;;;;;;;;;;;;;20.12;36.21;103079.34;7284191;19;152898;-52
2022/01/24 13:27:45;;;;;;;;;;;;;;;20.15;36.49;103075.16;7293300;19;152453;-53
2022/01/24 13:30:23;;;;;;;;;;;;;;;20.20;36.54;103072.44;7286844;19;153739;-53
2022/01/24 13:32:54;;;;;;;;;;;;;;;20.24;36.19;103065.22;7284513;19;151715;-53
2022/01/24 13:35:25;;;;;;;;;;;;;;;20.28;36.51;103061.63;7285082;19;152968;-53
2022/01/24 13:37:56;;;;;;;;;;;;;;;20.33;36.03;103058.94;7286251;19;153371;-53
2022/01/24 13:40:38;;;;;;;;;;;;;;;20.38;36.15;103061.00;7285659;19;152001;-52
2022/01/24 13:43:06;;;;;;;;;;;;;;;20.42;36.30;103051.78;7284996;19;153000;-52
2022/01/24 13:45:34;;;;;;;;;;;;;;;20.47;36.25;103051.03;7286636;19;155017;-53
2022/01/24 13:48:02;;;;;;;;;;;;;;;20.51;35.86;103049.41;7282855;19;152255;-53
2022/01/24 13:50:29;;;;;;;;;;;;;;;20.56;36.13;103049.47;7292108;19;152718;-53
2022/01/24 13:52:56;;;;;;;;;;;;;;;20.60;35.74;103055.44;7285777;19;151770;-53
2022/01/24 13:55:24;;;;;;;;;;;;;;;20.66;35.78;103048.78;7286486;19;153688;-53
2022/01/24 13:57:53;;;;;;;;;;;;;;;20.69;35.74;103054.72;7285721;19;154252;-53
2022/01/24 14:00:27;;;;;;;;;;;;;;;20.72;36.01;103057.00;7280894;19;152746;-52
2022/01/24 14:03:05;;;;;;;;;;;;;;;20.77;35.54;103053.44;7283251;19;153262;-52
2022/01/24 14:05:49;;;;;;;;;;;;;;;20.82;35.79;103059.13;7283116;19;153495;-53
2022/01/24 14:08:21;;;;;;;;;;;;;;;20.84;35.32;103060.59;7284364;19;151946;-52
2022/01/24 14:10:56;;;;;;;;;;;;;;;20.89;35.65;103050.53;7286872;19;153517;-52
2022/01/24 14:13:24;;;;;;;;;;;;;;;20.93;35.62;103058.19;7285326;19;152199;-53
2022/01/24 14:16:04;;;;;;;;;;;;;;;20.95;35.57;103049.47;7285196;19;153420;-53
2022/01/24 14:18:32;;;;;;;;;;;;;;;20.99;35.38;103059.06;7284900;19;153526;-52
2022/01/24 14:21:09;;;;;;;;;;;;;;;21.00;35.45;103053.19;7285561;19;152339;-53
2022/01/24 14:23:38;;;;;;;;;;;;;;;21.01;35.50;103046.47;7284228;19;151831;-53
2022/01/24 14:26:15;;;;;;;;;;;;;;;21.03;35.28;103041.44;7283578;19;153454;-52
2022/01/24 14:28:42;;;;;;;;;;;;;;;21.04;35.21;103045.09;7281480;19;152226;-52
2022/01/24 14:31:12;;;;;;;;;;;;;;;21.05;34.92;103044.00;7286045;19;153520;-53
2022/01/24 14:33:48;;;;;;;;;;;;;;;21.05;35.31;103039.22;7292632;19;154226;-54
2022/01/24 14:36:17;;;;;;;;;;;;;;;21.05;34.97;103044.00;7283183;19;151650;-52
2022/01/24 14:39:06;;;;;;;;;;;;;;;21.06;34.85;103045.69;7283827;19;153376;-53
2022/01/24 14:41:45;;;;;;;;;;;;;;;21.04;35.15;103043.13;7283005;19;151654;-53
2022/01/24 14:46:50;;;;;;;;;;;;;;;21.04;35.11;103042.28;7282515;19;154369;-53